createdAt,value
2018-06-01T00:02:06.139Z,97.28
2018-06-01T00:04:33.600Z,97.38
2018-06-01T00:07:01.088Z,97.41
2018-06-01T00:09:28.594Z,97.56
2018-06-01T00:11:56.074Z,97.52
2018-06-01T00:14:23.545Z,97.50
2018-06-01T00:16:51.027Z,97.65
2018-06-01T00:19:18.543Z,97.67
2018-06-01T00:21:46.090Z,97.80
2018-06-01T00:24:13.550Z,97.72
2018-06-01T00:26:41.030Z,97.81
2018-06-01T00:29:08.498Z,97.88
2018-06-01T00:31:36.026Z,97.93
2018-06-01T00:34:03.482Z,98.18
2018-06-01T00:36:31.051Z,98.04
2018-06-01T00:38:58.615Z,98.09
2018-06-01T00:41:26.103Z,98.40
2018-06-01T00:43:53.566Z,98.54
2018-06-01T00:46:21.083Z,98.66
2018-06-01T00:48:48.575Z,98.56
2018-06-01T00:51:16.038Z,98.71
2018-06-01T00:53:43.564Z,98.78
2018-06-01T00:56:11.121Z,98.83
2018-06-01T00:58:38.675Z,99.06
2018-06-01T01:01:06.143Z,99.16
2018-06-01T01:03:33.694Z,99.05
2018-06-01T01:06:01.166Z,98.87
2018-06-01T01:08:28.650Z,98.83
2018-06-01T01:10:56.155Z,98.84
2018-06-01T01:13:23.709Z,98.83
2018-06-01T01:15:51.206Z,98.70
2018-06-01T01:18:18.699Z,98.74
2018-06-01T01:20:46.164Z,98.80
2018-06-01T01:23:13.678Z,98.84
2018-06-01T01:25:41.219Z,98.94
2018-06-01T01:28:08.778Z,99.15
2018-06-01T01:30:36.338Z,99.36
2018-06-01T01:33:03.877Z,99.51
2018-06-01T01:35:31.363Z,99.55
2018-06-01T01:37:58.858Z,99.54
2018-06-01T01:40:26.346Z,99.31
2018-06-01T01:42:53.934Z,99.14
2018-06-01T01:45:21.562Z,98.99
2018-06-01T01:47:49.062Z,98.97
2018-06-01T01:50:16.540Z,98.89
2018-06-01T01:52:44.074Z,98.96
2018-06-01T01:55:11.544Z,98.97
2018-06-01T01:57:39.095Z,98.84
2018-06-01T02:00:06.582Z,98.81
2018-06-01T02:02:34.112Z,98.88
2018-06-01T02:05:01.603Z,98.90
2018-06-01T02:07:29.070Z,98.81
2018-06-01T02:09:56.581Z,98.94
2018-06-01T02:12:24.079Z,99.06
2018-06-01T02:14:51.566Z,98.97
2018-06-01T02:17:19.034Z,99.03
2018-06-01T02:19:46.614Z,99.16
2018-06-01T02:22:14.087Z,99.12
2018-06-01T02:24:41.634Z,99.17
2018-06-01T02:27:09.098Z,99.31
2018-06-01T02:29:36.643Z,99.34
2018-06-01T02:32:04.220Z,99.39
2018-06-01T02:34:31.782Z,99.43
2018-06-01T02:36:59.334Z,99.45
2018-06-01T02:39:26.831Z,99.57
2018-06-01T02:41:54.351Z,99.50
2018-06-01T02:44:21.859Z,99.52
2018-06-01T02:46:49.342Z,99.48
2018-06-01T02:49:16.831Z,99.50
2018-06-01T02:51:44.389Z,99.37
2018-06-01T02:54:11.900Z,99.27
2018-06-01T02:56:39.394Z,99.22
2018-06-01T02:59:06.887Z,99.19
2018-06-01T03:01:34.561Z,99.27
2018-06-01T03:04:02.082Z,99.31
2018-06-01T03:09:26.611Z,99.42
2018-06-01T03:11:54.158Z,99.40
2018-06-01T03:14:21.686Z,99.32
2018-06-01T03:16:49.174Z,99.25
2018-06-01T03:19:16.651Z,99.28
2018-06-01T03:21:44.162Z,99.48
2018-06-01T03:24:11.642Z,99.66
2018-06-01T03:26:39.223Z,99.75
2018-06-01T03:29:06.748Z,99.69
2018-06-01T03:31:34.301Z,99.56
2018-06-01T03:34:01.775Z,99.45
2018-06-01T03:36:29.270Z,99.52
2018-06-01T03:38:56.743Z,99.56
2018-06-01T03:41:24.231Z,99.56
2018-06-01T03:43:51.713Z,99.50
2018-06-01T03:46:19.198Z,99.70
2018-06-01T03:48:46.726Z,99.91
2018-06-01T03:51:14.206Z,99.85
2018-06-01T03:53:41.850Z,99.82
2018-06-01T03:56:09.410Z,99.83
2018-06-01T03:58:36.874Z,99.90
2018-06-01T04:01:04.434Z,99.98
2018-06-01T04:03:31.994Z,99.92
2018-06-01T04:05:59.498Z,100.00
2018-06-01T04:08:27.007Z,100.00
2018-06-01T04:10:54.530Z,100.00
2018-06-01T04:13:22.011Z,100.00
2018-06-01T04:15:49.565Z,99.93
2018-06-01T04:18:17.042Z,99.75
2018-06-01T04:20:44.528Z,99.65
2018-06-01T04:23:12.014Z,99.62
2018-06-01T04:25:39.515Z,99.60
2018-06-01T04:28:06.994Z,99.70
2018-06-01T04:30:34.460Z,99.83
2018-06-01T04:33:01.955Z,99.82
2018-06-01T04:35:29.442Z,99.81
2018-06-01T04:37:57.006Z,99.74
2018-06-01T04:40:24.664Z,99.73
2018-06-01T04:42:52.162Z,99.72
2018-06-01T04:45:19.621Z,99.56
2018-06-01T04:47:47.111Z,99.37
2018-06-01T04:50:14.611Z,99.19
2018-06-01T04:52:42.113Z,99.07
2018-06-01T04:55:09.619Z,98.71
2018-06-01T04:57:37.126Z,98.57
2018-06-01T05:00:04.665Z,98.49
2018-06-01T05:02:32.159Z,98.66
2018-06-01T05:04:59.660Z,98.66
2018-06-01T05:07:27.221Z,98.50
2018-06-01T05:09:54.787Z,98.12
2018-06-01T05:12:22.285Z,98.02
2018-06-01T05:14:49.770Z,98.00
2018-06-01T05:17:17.351Z,97.62
2018-06-01T05:19:44.830Z,97.03
2018-06-01T05:22:12.354Z,96.28
2018-06-01T05:24:39.810Z,95.70
2018-06-01T05:27:07.383Z,95.67
2018-06-01T05:29:34.953Z,95.87
2018-06-01T05:32:02.443Z,95.90
2018-06-01T05:34:29.911Z,95.81
2018-06-01T05:36:57.472Z,95.03
2018-06-01T05:39:27.026Z,95.96
2018-06-01T05:41:54.687Z,95.76
2018-06-01T05:44:22.358Z,95.59
2018-06-01T05:46:50.941Z,94.77
2018-06-01T05:49:18.531Z,94.29
2018-06-01T05:51:46.000Z,92.99
2018-06-01T05:54:13.535Z,93.38
2018-06-01T05:56:41.000Z,92.68
2018-06-01T05:59:08.488Z,92.21
2018-06-01T06:01:35.963Z,92.29
2018-06-01T06:04:03.458Z,92.30
2018-06-01T06:06:30.927Z,92.74
2018-06-01T06:08:58.483Z,90.28
2018-06-01T06:11:26.014Z,88.94
2018-06-01T06:13:53.579Z,89.38
2018-06-01T06:16:21.151Z,89.71
2018-06-01T06:18:48.655Z,90.45
2018-06-01T06:21:16.122Z,89.29
2018-06-01T06:23:43.612Z,87.22
2018-06-01T06:26:11.215Z,87.03
2018-06-01T06:28:38.736Z,86.81
2018-06-01T06:31:06.204Z,86.31
2018-06-01T06:33:33.690Z,84.90
2018-06-01T06:36:01.151Z,84.01
2018-06-01T06:38:28.634Z,84.17
2018-06-01T06:40:56.117Z,81.53
2018-06-01T06:43:28.005Z,81.36
2018-06-01T06:45:56.847Z,79.77
2018-06-01T06:48:36.133Z,78.95
2018-06-01T06:51:07.683Z,78.52
2018-06-01T06:53:37.187Z,77.40
2018-06-01T06:56:07.598Z,76.39
2018-06-01T06:58:36.497Z,72.12
2018-06-01T07:03:58.238Z,73.16
2018-06-01T07:06:31.316Z,71.42
2018-06-01T07:17:28.274Z,71.60
2018-06-01T07:21:40.843Z,73.25
2018-06-01T07:24:10.747Z,72.92
2018-06-01T07:32:34.968Z,71.48
2018-06-01T07:35:03.553Z,72.09
2018-06-01T07:40:27.340Z,71.50
2018-06-01T07:42:57.050Z,70.62
2018-06-01T07:45:26.320Z,70.56
2018-06-01T07:50:37.845Z,70.47
2018-06-01T07:53:05.920Z,68.58
2018-06-01T07:55:34.682Z,70.24
2018-06-01T08:00:56.131Z,67.22
2018-06-01T08:03:25.741Z,67.66
2018-06-01T08:05:55.494Z,68.30
2018-06-01T08:08:25.362Z,68.17
2018-06-01T08:10:55.283Z,68.33
2018-06-01T08:13:24.914Z,67.81
2018-06-01T08:15:54.901Z,67.12
2018-06-01T08:18:27.144Z,62.09
2018-06-01T08:20:56.719Z,64.53
2018-06-01T08:23:26.547Z,63.83
2018-06-01T08:25:55.903Z,63.07
2018-06-01T08:28:24.363Z,62.41
2018-06-01T08:30:55.025Z,60.60
2018-06-01T08:33:25.215Z,62.58
2018-06-01T08:35:54.820Z,62.16
2018-06-01T08:38:23.130Z,61.80
2018-06-01T08:40:52.191Z,60.76
2018-06-01T08:43:22.300Z,61.42
2018-06-01T08:45:51.947Z,62.09
2018-06-01T08:48:20.790Z,61.39
2018-06-01T08:50:50.069Z,61.46
2018-06-01T08:53:19.689Z,61.33
2018-06-01T08:55:49.867Z,62.14
2018-06-01T08:58:19.833Z,61.81
2018-06-01T09:00:48.511Z,60.85
2018-06-01T09:03:17.203Z,59.62
2018-06-01T09:05:45.887Z,59.37
2018-06-01T09:08:14.570Z,59.05
2018-06-01T09:12:20.627Z,58.20
2018-06-01T09:14:49.289Z,58.85
2018-06-01T09:20:09.828Z,56.99
2018-06-01T09:23:05.064Z,57.62
2018-06-01T09:25:34.562Z,56.30
2018-06-01T09:28:05.513Z,55.36
2018-06-01T09:30:41.922Z,56.17
2018-06-01T09:33:12.570Z,55.90
2018-06-01T09:38:31.990Z,52.92
2018-06-01T09:41:00.535Z,52.58
2018-06-01T09:43:30.239Z,51.61
2018-06-01T09:45:59.846Z,49.16
2018-06-01T09:48:29.040Z,48.02
2018-06-01T09:50:58.343Z,46.84
2018-06-01T09:53:27.949Z,46.21
2018-06-01T09:55:57.253Z,44.82
2018-06-01T10:07:22.907Z,42.78
2018-06-01T10:09:57.636Z,43.22
2018-06-01T10:12:26.722Z,42.05
2018-06-01T10:14:58.373Z,40.29
2018-06-01T10:17:29.319Z,41.53
2018-06-01T10:19:59.156Z,43.88
2018-06-01T10:22:28.839Z,41.07
2018-06-01T10:24:58.033Z,40.45
2018-06-01T10:27:28.868Z,41.56
2018-06-01T10:29:59.793Z,42.64
2018-06-01T10:32:30.020Z,45.26
2018-06-01T10:41:09.283Z,40.69
2018-06-01T10:43:36.866Z,41.04
2018-06-01T10:46:04.326Z,41.92
2018-06-01T10:48:31.810Z,39.45
2018-06-01T10:50:59.282Z,36.17
2018-06-01T10:53:26.820Z,37.40
2018-06-01T10:55:54.370Z,38.75
2018-06-01T10:58:21.862Z,41.03
2018-06-01T11:00:49.416Z,40.83
2018-06-01T11:03:16.946Z,40.68
2018-06-01T11:05:44.525Z,39.33
2018-06-01T11:08:12.018Z,37.09
2018-06-01T11:10:39.480Z,34.35
2018-06-01T11:13:07.071Z,37.92
2018-06-01T11:15:34.560Z,38.50
2018-06-01T11:18:02.030Z,37.07
2018-06-01T11:20:29.542Z,34.37
2018-06-01T11:22:57.007Z,31.75
2018-06-01T11:25:24.607Z,32.08
2018-06-01T11:27:52.131Z,28.59
2018-06-01T11:30:19.683Z,30.61
2018-06-01T11:32:47.169Z,31.49
2018-06-01T11:35:14.733Z,28.72
2018-06-01T11:37:42.200Z,31.81
2018-06-01T11:40:09.698Z,33.62
2018-06-01T11:42:37.217Z,27.37
2018-06-01T11:45:07.692Z,29.61
2018-06-01T11:47:36.067Z,32.29
2018-06-01T11:50:03.691Z,33.83
2018-06-01T11:52:31.760Z,36.20
2018-06-01T11:55:01.788Z,36.91
2018-06-01T11:57:31.340Z,37.70
2018-06-01T11:59:58.928Z,36.34
2018-06-01T12:02:26.423Z,31.73
2018-06-01T12:04:53.910Z,29.23
2018-06-01T12:07:21.371Z,28.76
2018-06-01T12:09:48.967Z,26.59
2018-06-01T12:12:16.498Z,23.21
2018-06-01T12:14:44.058Z,22.89
2018-06-01T12:17:11.528Z,21.34
2018-06-01T12:19:39.022Z,22.16
2018-06-01T12:22:06.499Z,22.45
2018-06-01T12:24:34.032Z,20.81
2018-06-01T12:27:01.547Z,24.78
2018-06-01T12:29:29.164Z,28.33
2018-06-01T12:31:56.775Z,30.15
2018-06-01T12:34:24.234Z,33.41
2018-06-01T12:36:51.714Z,33.90
2018-06-01T12:39:19.173Z,34.43
2018-06-01T12:41:46.682Z,35.86
2018-06-01T12:44:14.147Z,35.13
2018-06-01T12:46:41.629Z,33.09
2018-06-01T12:49:09.182Z,34.31
2018-06-01T12:51:36.743Z,34.74
2018-06-01T12:54:04.257Z,36.57
2018-06-01T12:56:31.757Z,37.64
2018-06-01T12:58:59.324Z,38.51
2018-06-01T13:01:26.819Z,38.02
2018-06-01T13:03:54.339Z,37.41
2018-06-01T13:06:21.919Z,36.92
2018-06-01T13:08:49.397Z,36.75
2018-06-01T13:11:16.914Z,35.54
2018-06-01T13:13:44.412Z,32.38
2018-06-01T13:16:11.899Z,28.15
2018-06-01T13:18:39.390Z,26.00
2018-06-01T13:21:06.994Z,28.67
2018-06-01T13:23:35.583Z,26.88
2018-06-01T13:26:06.219Z,25.38
2018-06-01T13:28:35.207Z,22.54
2018-06-01T13:31:04.197Z,20.17
2018-06-01T13:33:33.807Z,18.33
2018-06-01T13:39:35.278Z,24.77
2018-06-01T13:42:03.760Z,20.00
2018-06-01T13:44:32.947Z,21.34
2018-06-01T13:47:02.247Z,22.64
2018-06-01T13:49:32.546Z,27.80
2018-06-01T13:52:17.142Z,30.62
2018-06-01T13:54:45.965Z,31.38
2018-06-01T13:59:57.414Z,33.01
2018-06-01T14:02:26.811Z,32.31
2018-06-01T14:04:58.776Z,32.79
2018-06-01T14:07:27.356Z,32.31
2018-06-01T14:12:52.786Z,29.23
2018-06-01T14:15:23.095Z,27.05
2018-06-01T14:24:05.642Z,22.21
2018-06-01T14:29:41.614Z,20.08
2018-06-01T14:32:09.556Z,17.29
2018-06-01T14:34:38.037Z,16.15
2018-06-01T14:43:20.595Z,14.39
